Time;durP1;ratioP1;P1;durP2;ratioP2;P2;SDS_P1;SDS_P2;PMS_P1;PMS_P2;Temp;Humidity;BMP_temperature;BMP_pressure;BME280_temperature;BME280_humidity;BME280_pressure;Samples;Min_cycle;Max_cycle;Signal;HPM_P1;HPM_P2
2022/01/18 00:04:50;;;;;;;37.63;6.20;;;6.80;99.90;;;;;;4780976;29;20474;-65
2022/01/18 00:10:33;;;;;;;42.78;7.60;;;6.70;99.90;;;;;;4778796;29;20501;-65
2022/01/18 00:20:01;;;;;;;32.13;5.60;;;6.50;99.90;;;;;;4780100;29;20047;-65
2022/01/18 00:29:30;;;;;;;49.83;7.97;;;6.30;99.90;;;;;;4784820;29;20116;-65
2022/01/18 00:32:46;;;;;;;36.28;6.60;;;6.20;99.90;;;;;;4786176;29;20051;-65
2022/01/18 00:35:39;;;;;;;39.10;6.32;;;6.20;99.90;;;;;;4785286;29;20447;-65
2022/01/18 00:38:45;;;;;;;27.85;5.38;;;6.10;99.90;;;;;;4778592;29;20516;-65
2022/01/18 00:41:38;;;;;;;28.05;5.53;;;6.10;99.90;;;;;;4784303;29;20050;-65
2022/01/18 00:44:05;;;;;;;32.60;5.05;;;5.90;99.90;;;;;;4801658;29;20386;-65
2022/01/18 00:46:53;;;;;;;30.00;5.15;;;5.90;99.90;;;;;;4787159;29;20405;-64
2022/01/18 00:50:01;;;;;;;25.77;4.53;;;5.90;99.90;;;;;;4787483;29;20382;-64
2022/01/18 00:52:55;;;;;;;;;;;5.80;99.90;;;;;;4785758;29;20046;-65
2022/01/18 00:55:34;;;;;;;24.17;4.00;;;5.70;99.90;;;;;;4770044;30;20348;-65
2022/01/18 01:01:24;;;;;;;24.85;4.60;;;5.70;99.90;;;;;;4712816;30;20570;-65
2022/01/18 01:04:25;;;;;;;29.83;4.78;;;5.60;99.90;;;;;;4779524;30;20528;-65
2022/01/18 01:10:32;;;;;;;34.08;5.03;;;5.60;99.90;;;;;;4775520;29;20432;-65
2022/01/18 01:13:09;;;;;;;29.58;5.38;;;5.60;99.90;;;;;;4779128;29;20440;-65
2022/01/18 01:16:21;;;;;;;21.60;4.38;;;5.60;99.90;;;;;;4784829;29;20047;-64
2022/01/18 01:35:11;;;;;;;38.80;5.38;;;5.60;99.90;;;;;;4784952;29;20066;-65
2022/01/18 01:44:41;;;;;;;44.42;6.45;;;5.60;99.90;;;;;;4782938;29;20196;-65
2022/01/18 01:48:08;;;;;;;40.28;5.78;;;5.60;99.90;;;;;;4712506;30;20076;-65
2022/01/18 01:54:17;;;;;;;39.25;5.90;;;5.60;99.90;;;;;;4629428;30;20075;-65
2022/01/18 01:56:55;;;;;;;30.17;5.30;;;5.60;99.90;;;;;;4625125;30;20477;-65
2022/01/18 02:00:04;;;;;;;37.03;6.10;;;5.60;99.90;;;;;;4653030;30;20078;-65
2022/01/18 02:02:33;;;;;;;45.35;7.30;;;5.60;99.90;;;;;;4639848;30;20084;-65
2022/01/18 02:05:40;;;;;;;46.83;6.57;;;5.60;99.90;;;;;;4643180;30;20090;-65
2022/01/18 02:08:24;;;;;;;43.83;7.00;;;5.60;99.90;;;;;;4646410;30;20098;-65
2022/01/18 02:11:42;;;;;;;53.92;7.15;;;5.60;99.90;;;;;;4645212;30;20137;-65
2022/01/18 02:24:25;;;;;;;41.47;7.05;;;5.70;99.90;;;;;;4672714;30;20647;-65
2022/01/18 02:27:09;;;;;;;31.40;6.82;;;5.70;99.90;;;;;;4718590;30;20531;-65
2022/01/18 02:29:41;;;;;;;56.00;7.07;;;5.70;99.90;;;;;;4779525;29;20051;-65
2022/01/18 02:32:42;;;;;;;42.35;7.43;;;5.80;99.90;;;;;;4784235;29;20412;-65
2022/01/18 02:35:49;;;;;;;55.20;8.35;;;5.80;99.90;;;;;;4767952;30;20441;-65
2022/01/18 02:39:04;;;;;;;51.15;8.05;;;5.80;99.90;;;;;;4783849;29;20102;-65
2022/01/18 02:41:39;;;;;;;56.38;7.45;;;5.80;99.90;;;;;;4786089;29;20404;-65
2022/01/18 02:44:22;;;;;;;52.85;7.10;;;5.90;99.90;;;;;;4782212;29;20496;-65
2022/01/18 02:50:39;;;;;;;52.45;8.32;;;5.90;99.90;;;;;;4746152;30;20502;-64
2022/01/18 02:53:30;;;;;;;62.00;9.07;;;5.90;99.90;;;;;;4663328;30;20075;-65
2022/01/18 02:56:28;;;;;;;46.55;7.57;;;5.90;99.90;;;;;;4674825;30;20523;-65
2022/01/18 03:05:55;;;;;;;48.65;7.72;;;6.00;99.90;;;;;;4730635;30;20135;-65
2022/01/18 03:08:57;;;;;;;84.22;7.95;;;5.90;99.90;;;;;;4737509;30;20547;-65
2022/01/18 03:14:27;;;;;;;75.15;9.10;;;5.90;99.90;;;;;;4738925;30;20536;-65
2022/01/18 03:17:33;;;;;;;73.15;8.82;;;5.90;99.90;;;;;;4748925;30;20460;-65
2022/01/18 03:20:20;;;;;;;76.00;9.45;;;6.00;99.90;;;;;;4734632;30;20430;-65
2022/01/18 03:23:17;;;;;;;40.42;7.15;;;6.00;99.90;;;;;;4779312;29;20054;-65
2022/01/18 03:29:02;;;;;;;83.07;9.30;;;6.00;99.90;;;;;;4771607;29;20055;-65
2022/01/18 03:31:30;;;;;;;58.55;7.90;;;6.00;99.90;;;;;;4783368;29;20051;-65
2022/01/18 03:37:56;;;;;;;50.70;7.75;;;6.00;99.90;;;;;;4777220;30;20126;-65
2022/01/18 03:40:39;;;;;;;43.05;6.68;;;6.00;99.90;;;;;;4758934;30;20525;-65
2022/01/18 03:43:18;;;;;;;59.95;6.72;;;6.00;99.90;;;;;;4781296;30;20043;-65
2022/01/18 03:46:04;;;;;;;;;;;;;;;;;;;;;
2022/01/18 03:49:06;;;;;;;41.72;6.82;;;6.00;99.90;;;;;;4770418;30;20461;-65
2022/01/18 03:54:58;;;;;;;32.35;6.90;;;5.90;99.90;;;;;;4770085;30;20047;-65
2022/01/18 03:57:50;;;;;;;59.20;7.07;;;5.90;99.90;;;;;;4778690;29;20527;-64
2022/01/18 04:00:32;;;;;;;39.95;6.00;;;5.90;99.90;;;;;;4786879;30;20145;-65
2022/01/18 04:03:12;;;;;;;66.55;7.70;;;5.90;99.90;;;;;;4786062;30;20587;-65
2022/01/18 04:05:52;;;;;;;126.10;9.27;;;5.90;99.90;;;;;;4777870;30;20508;-65
2022/01/18 04:08:47;;;;;;;41.85;6.90;;;5.90;99.90;;;;;;4771742;30;20055;-65
2022/01/18 04:11:22;;;;;;;82.13;8.75;;;5.90;99.90;;;;;;4773832;29;20526;-65
2022/01/18 04:14:24;;;;;;;67.07;8.38;;;5.90;99.90;;;;;;4783699;29;20112;-65
2022/01/18 04:29:19;;;;;;;28.67;6.18;;;5.90;99.90;;;;;;4787724;29;20063;-65
2022/01/18 04:31:54;;;;;;;43.13;7.90;;;5.90;99.90;;;;;;4787542;29;20420;-65
2022/01/18 04:34:53;;;;;;;31.73;6.63;;;5.80;99.90;;;;;;4789754;29;20051;-65
2022/01/18 04:37:28;;;;;;;76.47;8.30;;;5.90;99.90;;;;;;4785134;30;20500;-65
2022/01/18 04:40:13;;;;;;;44.72;7.97;;;5.90;99.90;;;;;;4787646;29;20039;-65
2022/01/18 04:48:58;;;;;;;33.75;6.53;;;5.80;99.90;;;;;;4781797;29;20046;-65
2022/01/18 04:51:37;;;;;;;24.52;6.80;;;5.80;99.90;;;;;;4787740;29;20500;-65
2022/01/18 04:54:29;;;;;;;35.00;7.47;;;5.80;99.90;;;;;;4786681;29;20527;-64
2022/01/18 05:04:10;;;;;;;38.05;7.43;;;5.80;99.90;;;;;;4776244;29;20513;-65
2022/01/18 05:09:58;;;;;;;38.63;7.35;;;5.80;99.90;;;;;;4780717;29;20051;-65
2022/01/18 05:15:59;;;;;;;42.17;7.30;;;5.80;99.90;;;;;;4741158;30;20531;-65
2022/01/18 05:24:44;;;;;;;27.85;7.35;;;5.80;99.90;;;;;;4785838;29;20508;-65
2022/01/18 05:27:16;;;;;;;24.88;6.63;;;5.80;99.90;;;;;;4798970;29;20063;-65
2022/01/18 05:30:00;;;;;;;24.10;7.18;;;5.80;99.90;;;;;;4781409;29;21547;-65
2022/01/18 05:33:10;;;;;;;24.98;7.40;;;5.80;99.90;;;;;;4784909;29;20071;-65
2022/01/18 05:38:45;;;;;;;40.28;7.75;;;5.80;99.90;;;;;;4782737;29;20565;-64
2022/01/18 05:42:06;;;;;;;24.08;8.13;;;5.80;99.90;;;;;;4783157;29;20477;-65
2022/01/18 05:48:31;;;;;;;29.58;7.22;;;5.80;99.90;;;;;;4730988;30;20561;-65
2022/01/18 05:51:43;;;;;;;31.45;7.88;;;5.80;99.90;;;;;;4742807;30;20493;-65
2022/01/18 05:54:22;;;;;;;;;;;;;;;;;;;;;
2022/01/18 05:57:32;;;;;;;24.73;6.30;;;5.70;99.90;;;;;;4784021;29;20055;-65
2022/01/18 06:00:31;;;;;;;18.60;5.70;;;5.70;99.90;;;;;;4594856;30;5613301;-65
2022/01/18 06:03:18;;;;;;;21.52;7.25;;;5.70;99.90;;;;;;4781333;29;20634;-65
2022/01/18 06:09:25;;;;;;;19.20;5.90;;;5.70;99.90;;;;;;4774413;29;20100;-65
2022/01/18 06:12:12;;;;;;;21.50;5.82;;;5.70;99.90;;;;;;4790285;29;20041;-65
2022/01/18 06:15:23;;;;;;;31.27;6.68;;;5.70;99.90;;;;;;4780845;29;20584;-64
2022/01/18 06:17:55;;;;;;;21.58;5.72;;;5.70;99.90;;;;;;4785306;29;20505;-65
2022/01/18 06:20:47;;;;;;;24.23;6.28;;;5.70;99.90;;;;;;4785700;29;20035;-65
2022/01/18 06:23:27;;;;;;;23.13;6.78;;;5.70;99.90;;;;;;4784481;30;20578;-64
2022/01/18 06:26:39;;;;;;;22.20;6.20;;;5.70;99.90;;;;;;4785708;30;20708;-64
2022/01/18 06:29:44;;;;;;;23.75;6.78;;;5.70;99.90;;;;;;4776822;29;20137;-64
2022/01/18 06:32:48;;;;;;;26.65;6.57;;;5.70;99.90;;;;;;4779213;29;20501;-65
2022/01/18 06:35:49;;;;;;;26.27;6.28;;;5.70;99.90;;;;;;4784621;29;20061;-64
2022/01/18 06:38:25;;;;;;;24.92;6.32;;;5.70;99.90;;;;;;4784479;29;20513;-64
2022/01/18 06:41:21;;;;;;;18.40;5.55;;;5.80;99.90;;;;;;4784361;29;20101;-65
2022/01/18 06:44:38;;;;;;;19.80;6.18;;;5.70;99.90;;;;;;4775140;29;20643;-64
2022/01/18 06:47:19;;;;;;;26.45;6.93;;;5.70;99.90;;;;;;4777016;29;20089;-64
2022/01/18 06:50:00;;;;;;;30.70;7.40;;;5.70;99.90;;;;;;4788614;29;20051;-65
2022/01/18 06:52:28;;;;;;;27.65;8.05;;;5.70;99.90;;;;;;4777300;29;20370;-64
2022/01/18 06:55:34;;;;;;;27.88;8.05;;;5.80;99.90;;;;;;4786163;29;20511;-65
2022/01/18 06:58:10;;;;;;;28.15;8.18;;;5.80;99.90;;;;;;4784193;29;20524;-64
2022/01/18 07:00:54;;;;;;;;;;;5.80;99.90;;;;;;4785563;29;20549;-64
2022/01/18 07:03:48;;;;;;;29.85;8.98;;;5.80;99.90;;;;;;4796226;29;19951;-65
2022/01/18 07:06:17;;;;;;;26.80;7.78;;;5.90;99.90;;;;;;4783261;29;20492;-65
2022/01/18 07:09:24;;;;;;;28.27;8.60;;;5.90;99.90;;;;;;4778109;30;20594;-64
2022/01/18 07:11:58;;;;;;;22.70;7.85;;;5.90;99.90;;;;;;4774651;29;20507;-64
2022/01/18 07:14:33;;;;;;;20.47;7.13;;;5.90;99.90;;;;;;4787473;29;20574;-64
2022/01/18 07:17:38;;;;;;;24.02;7.18;;;5.90;99.90;;;;;;4786121;29;20818;-64
2022/01/18 07:20:08;;;;;;;23.83;7.57;;;5.90;99.90;;;;;;4785934;29;20539;-64
2022/01/18 07:22:51;;;;;;;28.15;8.60;;;5.90;99.90;;;;;;4786522;29;20465;-64
2022/01/18 07:25:42;;;;;;;20.17;7.63;;;5.90;99.90;;;;;;4787744;29;20051;-65
2022/01/18 07:28:41;;;;;;;20.60;7.25;;;5.90;99.90;;;;;;4768074;30;20517;-64
2022/01/18 07:31:42;;;;;;;25.65;7.57;;;5.90;99.90;;;;;;4779763;29;20516;-65
2022/01/18 07:34:21;;;;;;;29.02;8.95;;;5.90;99.90;;;;;;4788000;29;20039;-64
2022/01/18 07:43:04;;;;;;;22.88;7.45;;;5.80;99.90;;;;;;4773511;29;20516;-64
2022/01/18 07:48:49;;;;;;;27.42;8.93;;;5.80;99.90;;;;;;4712730;30;20056;-64
2022/01/18 07:51:37;;;;;;;28.90;9.45;;;5.80;99.90;;;;;;4711402;30;20107;-65
2022/01/18 07:57:21;;;;;;;20.85;8.73;;;5.80;99.90;;;;;;4777117;30;20043;-65
2022/01/18 08:00:04;;;;;;;24.52;9.25;;;5.80;99.90;;;;;;4770660;30;20055;-65
2022/01/18 08:02:54;;;;;;;22.95;8.63;;;5.80;99.90;;;;;;4795606;29;20063;-64
2022/01/18 08:05:28;;;;;;;27.00;8.38;;;5.80;99.90;;;;;;4777569;29;20080;-64
2022/01/18 08:12:07;;;;;;;19.95;8.07;;;5.80;99.90;;;;;;4787222;29;20048;-64
2022/01/18 08:15:26;;;;;;;23.75;7.28;;;5.80;99.90;;;;;;4785465;29;20063;-64
2022/01/18 08:18:13;;;;;;;15.68;6.13;;;5.80;99.90;;;;;;4779773;29;20509;-64
2022/01/18 08:20:57;;;;;;;19.83;7.82;;;5.70;99.90;;;;;;4783912;29;20063;-64
2022/01/18 08:24:07;;;;;;;21.20;8.13;;;5.70;99.90;;;;;;4786616;29;21448;-64
2022/01/18 08:26:55;;;;;;;27.88;9.07;;;5.80;99.90;;;;;;4781068;30;20058;-64
2022/01/18 08:29:50;;;;;;;28.10;8.48;;;5.80;99.90;;;;;;4785168;29;20057;-64
2022/01/18 08:32:25;;;;;;;24.00;7.72;;;5.80;99.90;;;;;;4766630;30;20058;-64
2022/01/18 08:44:46;;;;;;;19.48;6.97;;;5.90;99.90;;;;;;4745671;30;20517;-65
2022/01/18 08:47:43;;;;;;;26.60;7.03;;;5.90;99.90;;;;;;4799489;29;20070;-64
2022/01/18 08:50:19;;;;;;;17.58;6.18;;;6.00;99.90;;;;;;4788314;29;20365;-64
2022/01/18 08:53:26;;;;;;;15.60;6.43;;;6.00;99.90;;;;;;4788144;29;20496;-64
2022/01/18 08:56:12;;;;;;;16.05;5.65;;;6.00;99.90;;;;;;4786437;30;20054;-64
2022/01/18 08:59:01;;;;;;;14.32;5.63;;;6.00;99.90;;;;;;4786134;29;20505;-64
2022/01/18 09:01:41;;;;;;;13.07;4.93;;;6.00;99.90;;;;;;4783510;29;20089;-64
2022/01/18 09:07:34;;;;;;;14.07;5.30;;;6.10;99.90;;;;;;4783504;29;20123;-64
2022/01/18 09:10:43;;;;;;;15.43;5.50;;;6.10;99.90;;;;;;4779576;29;20515;-64
2022/01/18 09:19:53;;;;;;;12.70;4.38;;;6.30;99.90;;;;;;4770950;29;20480;-64
2022/01/18 09:25:42;;;;;;;11.90;4.43;;;6.40;99.90;;;;;;4779601;29;20578;-64
2022/01/18 09:28:31;;;;;;;11.32;4.32;;;6.50;99.90;;;;;;4782724;29;20039;-64
2022/01/18 09:34:08;;;;;;;11.52;4.25;;;6.60;99.90;;;;;;4782095;29;20231;-64
2022/01/18 09:36:58;;;;;;;20.92;5.85;;;6.60;99.90;;;;;;4784250;29;20047;-64
2022/01/18 09:43:01;;;;;;;12.27;4.50;;;6.70;99.90;;;;;;4780123;29;20400;-64
2022/01/18 09:45:36;;;;;;;;;;;6.80;99.90;;;;;;4795452;29;20066;-64
2022/01/18 09:48:45;;;;;;;11.30;4.07;;;6.80;99.90;;;;;;4780433;29;20690;-64
2022/01/18 09:51:24;;;;;;;9.77;3.63;;;6.90;99.90;;;;;;4745793;29;20103;-64
2022/01/18 09:54:31;;;;;;;11.55;4.15;;;6.90;99.90;;;;;;4776572;29;20055;-64
2022/01/18 09:57:06;;;;;;;10.48;3.50;;;6.90;99.90;;;;;;4784025;29;20103;-64
2022/01/18 10:00:01;;;;;;;8.85;3.13;;;6.90;99.90;;;;;;4782498;29;20043;-64
2022/01/18 10:02:36;;;;;;;8.60;3.10;;;6.90;99.90;;;;;;4776432;29;20063;-64
2022/01/18 10:05:55;;;;;;;9.45;3.40;;;6.90;99.90;;;;;;4765094;29;20431;-64
2022/01/18 10:08:52;;;;;;;11.73;3.13;;;6.90;99.90;;;;;;4782922;29;20076;-64
2022/01/18 10:11:27;;;;;;;10.55;2.63;;;7.00;99.90;;;;;;4781790;29;20069;-64
2022/01/18 10:14:39;;;;;;;7.88;2.90;;;7.10;99.90;;;;;;4782815;29;20118;-64
2022/01/18 10:17:42;;;;;;;8.23;2.55;;;7.00;99.90;;;;;;4776352;29;20492;-64
2022/01/18 10:20:26;;;;;;;8.50;2.90;;;7.00;99.90;;;;;;4784563;29;20381;-64
2022/01/18 10:23:24;;;;;;;11.90;3.67;;;7.00;99.90;;;;;;4780212;29;20143;-64
2022/01/18 10:26:14;;;;;;;8.90;3.22;;;7.00;99.90;;;;;;4763759;29;20063;-64
2022/01/18 10:29:19;;;;;;;9.48;3.20;;;7.10;99.90;;;;;;4781389;29;20051;-64
2022/01/18 10:32:00;;;;;;;10.23;3.88;;;7.10;99.90;;;;;;4778762;29;20066;-64
2022/01/18 10:35:04;;;;;;;8.18;3.60;;;7.10;99.90;;;;;;4781271;29;20162;-64
2022/01/18 10:40:33;;;;;;;10.68;3.28;;;7.10;99.90;;;;;;4710772;30;20052;-64
2022/01/18 10:43:06;;;;;;;9.43;2.97;;;7.10;99.90;;;;;;4775612;29;20047;-64
2022/01/18 10:46:30;;;;;;;;;;;;;;;;;;;;;
2022/01/18 10:49:47;;;;;;;8.55;3.38;;;7.10;99.90;;;;;;4697843;30;20060;-64
2022/01/18 10:55:20;;;;;;;8.02;3.15;;;7.10;99.90;;;;;;4721393;30;20060;-64
2022/01/18 10:57:49;;;;;;;8.82;3.92;;;7.20;99.90;;;;;;4727096;30;20056;-64
2022/01/18 11:00:44;;;;;;;9.52;3.30;;;7.20;99.90;;;;;;4730895;30;20044;-64
2022/01/18 11:03:34;;;;;;;10.13;3.50;;;7.20;99.90;;;;;;4730691;30;20067;-64
2022/01/18 11:06:18;;;;;;;7.68;3.28;;;7.30;99.90;;;;;;4741631;30;20064;-64
2022/01/18 11:09:15;;;;;;;12.55;3.97;;;7.30;99.90;;;;;;4729885;30;20130;-64
2022/01/18 11:15:04;;;;;;;14.73;4.30;;;7.30;99.90;;;;;;4727370;30;20048;-65
2022/01/18 11:18:37;;;;;;;13.88;4.28;;;7.30;99.90;;;;;;4727833;30;20110;-64
2022/01/18 11:24:22;;;;;;;14.95;4.35;;;7.30;99.90;;;;;;4779871;29;20063;-65
2022/01/18 11:26:59;;;;;;;13.20;4.63;;;7.30;99.90;;;;;;4778520;29;20500;-65
2022/01/18 11:29:45;;;;;;;16.50;4.72;;;7.30;99.90;;;;;;4780755;29;20067;-64
2022/01/18 11:32:26;;;;;;;10.23;4.65;;;7.30;99.90;;;;;;4782384;29;20063;-64
2022/01/18 11:35:16;;;;;;;14.48;5.03;;;6.70;99.90;;;;;;4781468;29;20055;-64
2022/01/18 11:38:22;;;;;;;10.68;5.18;;;7.30;99.90;;;;;;4784235;29;20050;-64
2022/01/18 11:40:57;;;;;;;13.95;5.25;;;7.30;99.90;;;;;;4766822;29;20055;-64
2022/01/18 11:44:02;;;;;;;14.05;5.68;;;7.30;99.90;;;;;;4781623;29;20050;-65
2022/01/18 11:47:12;;;;;;;12.02;5.20;;;7.20;99.90;;;;;;4783872;29;20047;-65
2022/01/18 11:49:50;;;;;;;15.32;6.07;;;7.20;99.90;;;;;;4775526;29;20051;-65
2022/01/18 11:53:40;;;;;;;17.33;5.93;;;7.20;99.90;;;;;;4781253;29;20081;-65
2022/01/18 11:57:06;;;;;;;12.50;5.32;;;7.20;99.90;;;;;;4768216;29;20051;-64
2022/01/18 11:59:52;;;;;;;16.88;6.18;;;7.20;99.90;;;;;;4725472;30;20771;-64
2022/01/18 12:02:49;;;;;;;13.13;5.28;;;7.20;99.90;;;;;;4697601;30;20077;-65
2022/01/18 12:05:26;;;;;;;14.55;6.00;;;7.20;99.90;;;;;;4740587;30;20073;-64
2022/01/18 12:08:07;;;;;;;12.77;5.78;;;7.10;99.90;;;;;;4741428;30;20079;-64
2022/01/18 12:11:03;;;;;;;21.90;6.25;;;7.20;99.90;;;;;;4744390;30;20151;-64
2022/01/18 12:13:56;;;;;;;15.55;6.22;;;7.20;99.90;;;;;;4781870;29;20054;-64
2022/01/18 12:17:11;;;;;;;13.18;6.20;;;7.20;99.90;;;;;;4780773;29;20400;-64
2022/01/18 12:20:05;;;;;;;;;;;;;;;;;;;;;
2022/01/18 12:23:07;;;;;;;13.85;5.40;;;7.20;99.90;;;;;;4784008;29;20495;-64
2022/01/18 12:26:02;;;;;;;13.88;5.65;;;7.20;99.90;;;;;;4784842;29;20560;-65
2022/01/18 12:32:41;;;;;;;10.18;5.20;;;7.20;99.90;;;;;;4761757;30;20050;-64
2022/01/18 12:36:20;;;;;;;14.20;5.78;;;7.20;99.90;;;;;;4744149;30;20072;-64
2022/01/18 12:39:00;;;;;;;16.42;5.90;;;7.20;99.90;;;;;;4763456;30;20043;-64
2022/01/18 12:44:20;;;;;;;12.27;5.57;;;7.20;99.90;;;;;;4763457;30;20048;-64
2022/01/18 12:45:21;;;;;;;;;;;7.30;99.90;;;;;;4700592;30;20084;-64
2022/01/18 12:48:13;;;;;;;19.10;5.75;;;7.20;99.90;;;;;;4715564;30;19941;-65
2022/01/18 12:51:26;;;;;;;16.02;5.80;;;7.20;99.90;;;;;;4782004;29;20059;-65
2022/01/18 12:55:06;;;;;;;14.40;5.45;;;7.20;99.90;;;;;;4783378;29;20574;-65
2022/01/18 12:58:28;;;;;;;11.52;5.70;;;7.30;99.90;;;;;;4714953;30;20052;-65
2022/01/18 13:01:27;;;;;;;16.83;6.40;;;7.30;99.90;;;;;;4791036;29;20051;-65
2022/01/18 13:04:41;;;;;;;17.02;6.75;;;7.40;99.90;;;;;;4778438;29;20134;-65
2022/01/18 13:07:51;;;;;;;16.20;6.38;;;7.40;99.90;;;;;;4781031;29;20173;-64
2022/01/18 13:11:08;;;;;;;15.05;5.68;;;7.50;99.90;;;;;;4774602;29;20047;-64
2022/01/18 13:30:45;;;;;;;17.15;6.20;;;7.30;99.90;;;;;;4740333;30;20152;-65
2022/01/18 13:36:15;;;;;;;15.80;6.00;;;7.20;99.90;;;;;;4772159;29;20111;-65
2022/01/18 13:39:03;;;;;;;19.65;7.38;;;7.20;99.90;;;;;;4777671;30;20043;-65
2022/01/18 13:42:17;;;;;;;19.52;6.90;;;7.20;99.90;;;;;;4784277;29;20074;-64
2022/01/18 13:45:12;;;;;;;17.08;7.68;;;7.20;99.90;;;;;;4770857;29;20097;-65
2022/01/18 13:47:49;;;;;;;14.57;7.47;;;7.10;99.90;;;;;;4782241;29;20051;-64
2022/01/18 13:51:08;;;;;;;20.27;8.73;;;7.10;99.90;;;;;;4781145;29;20081;-65
2022/01/18 13:53:39;;;;;;;30.92;13.10;;;7.00;99.90;;;;;;4783124;29;20043;-65
2022/01/18 13:59:25;;;;;;;32.05;13.18;;;7.00;99.90;;;;;;4729114;30;20056;-65
2022/01/18 14:02:18;;;;;;;33.13;13.63;;;7.00;99.90;;;;;;4779765;29;20054;-65
2022/01/18 14:05:21;;;;;;;29.27;13.65;;;7.00;99.90;;;;;;4778959;29;20057;-64
2022/01/18 14:07:48;;;;;;;36.00;16.13;;;6.90;99.90;;;;;;4779555;29;20051;-65
2022/01/18 14:10:45;;;;;;;32.28;15.52;;;6.80;99.90;;;;;;4781345;29;20039;-64
2022/01/18 14:14:05;;;;;;;28.55;14.40;;;6.80;99.90;;;;;;4778754;29;20067;-65
2022/01/18 14:20:33;;;;;;;25.98;11.88;;;6.60;99.90;;;;;;4686119;30;20104;-64
2022/01/18 14:23:00;;;;;;;30.08;13.48;;;6.60;99.90;;;;;;4685804;30;20065;-65
2022/01/18 14:25:46;;;;;;;22.73;10.00;;;6.50;99.90;;;;;;4688787;30;20144;-64
2022/01/18 14:31:20;;;;;;;21.42;9.93;;;6.30;99.90;;;;;;4730946;30;20201;-64
2022/01/18 14:34:37;;;;;;;26.92;11.30;;;6.30;99.90;;;;;;4728846;30;20123;-64
2022/01/18 14:40:47;;;;;;;25.88;10.95;;;6.30;99.90;;;;;;4723489;30;20059;-65
2022/01/18 14:43:44;;;;;;;22.75;10.60;;;6.20;99.90;;;;;;4744180;30;20048;-64
2022/01/18 14:49:20;;;;;;;20.38;8.75;;;6.00;99.90;;;;;;4720634;30;19930;-64
2022/01/18 14:52:06;;;;;;;25.00;9.27;;;6.00;99.90;;;;;;4710718;30;20087;-64
2022/01/18 14:54:35;;;;;;;22.73;8.73;;;6.00;99.90;;;;;;4742079;30;20056;-65
2022/01/18 14:57:32;;;;;;;20.15;8.50;;;5.90;99.90;;;;;;4743823;29;20066;-64
2022/01/18 15:00:29;;;;;;;21.52;9.57;;;5.90;99.90;;;;;;4780131;29;20163;-64
2022/01/18 15:03:03;;;;;;;;;;;5.90;99.90;;;;;;4779288;29;20058;-64
2022/01/18 15:05:50;;;;;;;25.38;9.57;;;5.90;99.90;;;;;;4777825;29;19926;-64
2022/01/18 15:08:22;;;;;;;25.23;10.85;;;5.90;99.90;;;;;;4778755;29;20599;-64
2022/01/18 15:11:36;;;;;;;21.30;9.43;;;5.90;99.90;;;;;;4777201;29;20074;-64
2022/01/18 15:23:21;;;;;;;24.42;9.90;;;5.80;99.90;;;;;;4761621;30;20127;-65
2022/01/18 15:25:50;;;;;;;25.33;9.98;;;5.80;99.90;;;;;;4780012;29;20058;-64
2022/01/18 15:29:17;;;;;;;29.60;10.65;;;5.70;99.90;;;;;;4778740;29;20108;-64
2022/01/18 15:31:46;;;;;;;25.33;10.85;;;5.70;99.90;;;;;;4763176;29;20063;-64
2022/01/18 15:37:16;;;;;;;20.35;9.27;;;5.70;99.90;;;;;;4785331;29;20047;-64
2022/01/18 15:40:30;;;;;;;27.92;10.65;;;5.70;99.90;;;;;;4784422;29;20475;-64
2022/01/18 15:43:16;;;;;;;24.02;10.38;;;5.60;99.90;;;;;;4730370;30;20055;-64
2022/01/18 15:46:28;;;;;;;24.65;9.82;;;5.60;99.90;;;;;;4746517;30;20060;-65
2022/01/18 15:52:25;;;;;;;27.20;10.30;;;5.50;99.90;;;;;;4762680;29;20638;-64
2022/01/18 15:55:09;;;;;;;29.60;10.77;;;5.50;99.90;;;;;;4767112;29;20059;-64
2022/01/18 15:58:08;;;;;;;;;;;;;;;;;;;;;
2022/01/18 16:01:15;;;;;;;33.70;11.82;;;5.40;99.90;;;;;;4769793;29;20059;-64
2022/01/18 16:03:53;;;;;;;46.60;11.60;;;5.40;99.90;;;;;;4779262;29;20063;-64
2022/01/18 16:06:43;;;;;;;31.70;12.13;;;5.40;99.90;;;;;;4778253;29;20095;-64
2022/01/18 16:09:54;;;;;;;23.52;10.68;;;5.40;99.90;;;;;;4760478;29;20051;-64
2022/01/18 16:12:40;;;;;;;21.80;10.30;;;5.40;99.90;;;;;;4761979;29;20067;-64
2022/01/18 16:15:11;;;;;;;22.10;9.30;;;5.30;99.90;;;;;;4697506;30;20243;-64
2022/01/18 16:17:49;;;;;;;23.10;10.25;;;5.30;99.90;;;;;;4753300;30;20065;-64
2022/01/18 16:20:51;;;;;;;20.00;10.07;;;5.30;99.90;;;;;;4748900;30;20095;-64
2022/01/18 16:23:59;;;;;;;21.23;8.90;;;5.20;99.90;;;;;;4689724;30;20069;-64
2022/01/18 16:26:31;;;;;;;36.22;9.77;;;5.20;99.90;;;;;;4693003;30;20073;-64
2022/01/18 16:29:09;;;;;;;22.63;10.43;;;5.20;99.90;;;;;;4674896;30;20064;-64
2022/01/18 16:32:03;;;;;;;21.80;9.88;;;5.20;99.90;;;;;;4694774;30;20088;-64
2022/01/18 16:34:40;;;;;;;24.85;9.95;;;5.20;99.90;;;;;;4733099;30;20143;-64
2022/01/18 16:37:17;;;;;;;23.60;10.57;;;5.20;99.90;;;;;;4749752;30;20067;-64
2022/01/18 16:39:56;;;;;;;20.00;9.70;;;5.10;99.90;;;;;;4752431;30;20056;-64
2022/01/18 16:42:34;;;;;;;22.85;9.35;;;5.00;99.90;;;;;;4746930;30;20123;-64
2022/01/18 16:47:55;;;;;;;20.10;9.50;;;5.00;99.90;;;;;;4747529;30;20070;-64
2022/01/18 16:50:30;;;;;;;20.75;10.07;;;4.90;99.90;;;;;;4778599;30;20142;-64
2022/01/18 16:53:04;;;;;;;27.67;10.40;;;4.90;99.90;;;;;;4753400;30;20120;-64
2022/01/18 16:59:42;;;;;;;27.88;12.18;;;4.90;99.90;;;;;;4781330;29;20059;-64
2022/01/18 17:06:22;;;;;;;28.60;12.60;;;4.80;99.90;;;;;;4782950;29;20055;-65
2022/01/18 17:09:00;;;;;;;24.48;11.93;;;4.80;99.90;;;;;;4787209;29;20055;-64
2022/01/18 17:12:05;;;;;;;27.00;12.88;;;4.90;99.90;;;;;;4785949;29;20091;-64
2022/01/18 17:14:43;;;;;;;25.02;13.18;;;4.90;99.90;;;;;;4782783;29;20059;-64
2022/01/18 17:17:27;;;;;;;35.72;14.02;;;4.90;99.90;;;;;;4785869;29;20063;-64
2022/01/18 17:20:52;;;;;;;;;;;;;;;;;;;;;
2022/01/18 17:22:55;;;;;;;38.42;15.90;;;4.90;99.90;;;;;;4772070;29;20122;-64
2022/01/18 17:28:44;;;;;;;29.92;14.13;;;4.90;99.90;;;;;;4777799;29;20059;-65
2022/01/18 17:31:22;;;;;;;38.22;15.77;;;4.90;99.90;;;;;;4784229;29;20066;-64
2022/01/18 17:34:25;;;;;;;44.45;16.00;;;4.90;99.90;;;;;;4781678;29;20063;-64
2022/01/18 17:37:18;;;;;;;30.77;14.48;;;4.90;99.90;;;;;;4790295;29;20055;-65
2022/01/18 17:39:49;;;;;;;35.50;15.52;;;4.90;99.90;;;;;;4785091;29;20046;-64
2022/01/18 17:42:55;;;;;;;39.97;16.35;;;4.90;99.90;;;;;;4769330;30;20057;-65
2022/01/18 17:45:26;;;;;;;43.63;17.42;;;5.00;99.90;;;;;;4773485;30;20461;-65
2022/01/18 17:48:39;;;;;;;31.70;15.15;;;5.10;99.90;;;;;;4768693;30;20051;-64
2022/01/18 17:51:39;;;;;;;32.03;16.15;;;5.10;99.90;;;;;;4780359;29;20577;-65
2022/01/18 17:54:39;;;;;;;;;;;;;;;;;;;;;
2022/01/18 17:57:14;;;;;;;38.80;17.65;;;5.00;99.90;;;;;;4781825;29;20066;-64
2022/01/18 17:59:50;;;;;;;36.78;16.88;;;5.00;99.90;;;;;;4782094;29;20047;-64
2022/01/18 18:02:25;;;;;;;36.80;18.55;;;5.00;99.90;;;;;;4784864;29;20042;-64
2022/01/18 18:05:26;;;;;;;45.03;18.30;;;5.10;99.90;;;;;;4772611;29;20059;-64
2022/01/18 18:07:59;;;;;;;34.63;15.32;;;5.10;99.90;;;;;;4769528;29;20101;-64
2022/01/18 18:10:39;;;;;;;28.13;13.40;;;5.10;99.90;;;;;;4782001;29;20063;-64
2022/01/18 18:13:06;;;;;;;28.80;12.15;;;5.10;99.90;;;;;;4778297;29;20074;-65
2022/01/18 18:15:34;;;;;;;35.55;13.52;;;5.00;99.90;;;;;;4783797;29;20051;-64
2022/01/18 18:18:30;;;;;;;33.33;13.80;;;5.00;99.90;;;;;;4786171;29;20085;-65
2022/01/18 18:21:11;;;;;;;34.38;14.45;;;5.00;99.90;;;;;;4786524;29;20059;-64
2022/01/18 18:23:42;;;;;;;39.88;15.07;;;5.10;99.90;;;;;;4785039;29;20059;-65
2022/01/18 18:26:29;;;;;;;33.17;14.35;;;5.00;99.90;;;;;;4783392;29;20063;-65
2022/01/18 18:32:27;;;;;;;37.15;14.88;;;5.10;99.90;;;;;;4784664;29;20066;-64
2022/01/18 18:35:22;;;;;;;35.47;14.20;;;5.10;99.90;;;;;;4774305;29;20109;-64
2022/01/18 18:38:01;;;;;;;44.35;15.70;;;5.10;99.90;;;;;;4776059;29;20059;-65
2022/01/18 18:41:04;;;;;;;48.75;17.38;;;5.10;99.90;;;;;;4795549;29;20072;-64
2022/01/18 18:44:10;;;;;;;44.78;18.17;;;5.10;99.90;;;;;;4784729;29;20122;-64
2022/01/18 18:46:44;;;;;;;43.03;17.20;;;5.10;99.90;;;;;;4782983;29;20132;-64
2022/01/18 18:49:21;;;;;;;49.58;19.27;;;5.10;99.90;;;;;;4785001;29;20039;-64
2022/01/18 18:52:05;;;;;;;54.28;19.42;;;5.10;99.90;;;;;;4784355;29;20050;-64
2022/01/18 18:54:46;;;;;;;50.93;20.53;;;5.10;99.90;;;;;;4776472;29;20127;-65
2022/01/18 18:57:40;;;;;;;74.00;23.05;;;5.10;99.90;;;;;;4784864;30;20047;-64
2022/01/18 19:01:04;;;;;;;59.53;22.23;;;5.10;99.90;;;;;;4780180;29;20051;-64
2022/01/18 19:03:39;;;;;;;52.08;21.88;;;5.10;99.90;;;;;;4775132;29;20505;-65
2022/01/18 19:06:16;;;;;;;68.93;23.35;;;5.20;99.90;;;;;;4750972;30;20056;-64
2022/01/18 19:12:14;;;;;;;62.00;23.80;;;5.20;99.90;;;;;;4767459;30;20141;-64
2022/01/18 19:15:19;;;;;;;50.70;20.65;;;5.20;99.90;;;;;;4752919;30;20063;-64
2022/01/18 19:17:53;;;;;;;66.25;24.95;;;5.20;99.90;;;;;;4752748;30;20117;-64
2022/01/18 19:24:04;;;;;;;71.97;24.20;;;5.20;99.90;;;;;;4743057;30;20062;-64